sensor_id;sensor_type;location;lat;lon;timestamp;pressure;altitude;pressure_sealevel;temperature;humidity
8416;BME280;4245;42.120;24.732;2023-05-20T00:00:47;99513.84;;;15.39;100.00
8416;BME280;4245;42.120;24.732;2023-05-20T00:03:14;99505.72;;;15.50;100.00
8416;BME280;4245;42.120;24.732;2023-05-20T00:05:41;99510.03;;;15.62;100.00
8416;BME280;4245;42.120;24.732;2023-05-20T00:08:08;99503.72;;;15.63;100.00
8416;BME280;4245;42.120;24.732;2023-05-20T00:10:35;99497.22;;;15.66;100.00
8416;BME280;4245;42.120;24.732;2023-05-20T00:13:02;99496.38;;;15.65;100.00
8416;BME280;4245;42.120;24.732;2023-05-20T00:15:30;99498.72;;;15.59;100.00
8416;BME280;4245;42.120;24.732;2023-05-20T00:18:00;99502.72;;;15.44;100.00
8416;BME280;4245;42.120;24.732;2023-05-20T00:20:27;99505.53;;;15.42;100.00
8416;BME280;4245;42.120;24.732;2023-05-20T00:22:54;99495.63;;;15.33;100.00
8416;BME280;4245;42.120;24.732;2023-05-20T00:25:20;99496.25;;;15.26;100.00
8416;BME280;4245;42.120;24.732;2023-05-20T00:27:47;99497.06;;;15.37;100.00
8416;BME280;4245;42.120;24.732;2023-05-20T00:30:14;99492.38;;;15.30;100.00
8416;BME280;4245;42.120;24.732;2023-05-20T00:32:42;99493.97;;;15.21;100.00
8416;BME280;4245;42.120;24.732;2023-05-20T00:35:09;99488.97;;;15.07;100.00
8416;BME280;4245;42.120;24.732;2023-05-20T00:37:35;99488.44;;;15.13;100.00
8416;BME280;4245;42.120;24.732;2023-05-20T00:40:02;99495.06;;;15.09;100.00
8416;BME280;4245;42.120;24.732;2023-05-20T00:42:30;99491.66;;;15.07;100.00
8416;BME280;4245;42.120;24.732;2023-05-20T00:44:56;99491.59;;;15.18;100.00
8416;BME280;4245;42.120;24.732;2023-05-20T00:47:26;99490.63;;;15.19;100.00
8416;BME280;4245;42.120;24.732;2023-05-20T00:49:56;99492.31;;;15.20;100.00
8416;BME280;4245;42.120;24.732;2023-05-20T00:52:23;99484.66;;;15.15;100.00
8416;BME280;4245;42.120;24.732;2023-05-20T00:54:51;99489.31;;;15.13;100.00
8416;BME280;4245;42.120;24.732;2023-05-20T00:57:18;99489.25;;;15.25;100.00
8416;BME280;4245;42.120;24.732;2023-05-20T00:59:45;99489.09;;;15.26;100.00
8416;BME280;4245;42.120;24.732;2023-05-20T01:02:12;99490.91;;;15.26;100.00
8416;BME280;4245;42.120;24.732;2023-05-20T01:04:39;99480.31;;;15.14;100.00
8416;BME280;4245;42.120;24.732;2023-05-20T01:07:14;99480.44;;;15.13;100.00
8416;BME280;4245;42.120;24.732;2023-05-20T01:09:42;99478.22;;;15.18;100.00
8416;BME280;4245;42.120;24.732;2023-05-20T01:12:12;99477.03;;;15.11;100.00
8416;BME280;4245;42.120;24.732;2023-05-20T01:14:47;99480.47;;;15.22;100.00
8416;BME280;4245;42.120;24.732;2023-05-20T01:17:15;99476.31;;;15.09;100.00
8416;BME280;4245;42.120;24.732;2023-05-20T01:19:44;99474.75;;;15.06;100.00
8416;BME280;4245;42.120;24.732;2023-05-20T01:22:13;99471.81;;;15.09;100.00
8416;BME280;4245;42.120;24.732;2023-05-20T01:24:42;99476.84;;;15.03;100.00
8416;BME280;4245;42.120;24.732;2023-05-20T01:27:10;99477.56;;;15.05;100.00
8416;BME280;4245;42.120;24.732;2023-05-20T01:29:38;99472.06;;;15.06;100.00
8416;BME280;4245;42.120;24.732;2023-05-20T01:32:07;99479.25;;;15.06;100.00
8416;BME280;4245;42.120;24.732;2023-05-20T01:34:36;99467.97;;;15.02;100.00
8416;BME280;4245;42.120;24.732;2023-05-20T01:37:05;99472.00;;;14.97;100.00
8416;BME280;4245;42.120;24.732;2023-05-20T01:39:35;99470.91;;;14.99;100.00
8416;BME280;4245;42.120;24.732;2023-05-20T01:42:04;99467.97;;;15.02;100.00
8416;BME280;4245;42.120;24.732;2023-05-20T01:44:32;99471.03;;;14.98;100.00
8416;BME280;4245;42.120;24.732;2023-05-20T01:46:59;99459.41;;;14.88;100.00
8416;BME280;4245;42.120;24.732;2023-05-20T01:49:26;99468.88;;;14.92;100.00
8416;BME280;4245;42.120;24.732;2023-05-20T01:51:53;99465.22;;;14.93;100.00
8416;BME280;4245;42.120;24.732;2023-05-20T01:54:20;99458.72;;;14.86;100.00
8416;BME280;4245;42.120;24.732;2023-05-20T01:56:46;99455.69;;;14.79;100.00
8416;BME280;4245;42.120;24.732;2023-05-20T01:59:15;99458.75;;;14.74;100.00
8416;BME280;4245;42.120;24.732;2023-05-20T02:01:41;99456.88;;;14.65;100.00
8416;BME280;4245;42.120;24.732;2023-05-20T02:04:08;99462.13;;;14.56;100.00
8416;BME280;4245;42.120;24.732;2023-05-20T02:06:36;99462.06;;;14.46;100.00
8416;BME280;4245;42.120;24.732;2023-05-20T02:09:04;99450.44;;;14.36;100.00
8416;BME280;4245;42.120;24.732;2023-05-20T02:11:31;99449.66;;;14.34;100.00
8416;BME280;4245;42.120;24.732;2023-05-20T02:13:57;99440.06;;;14.43;100.00
8416;BME280;4245;42.120;24.732;2023-05-20T02:16:26;99446.66;;;14.39;100.00
8416;BME280;4245;42.120;24.732;2023-05-20T02:18:52;99431.22;;;14.31;100.00
8416;BME280;4245;42.120;24.732;2023-05-20T02:21:20;99436.84;;;14.28;100.00
8416;BME280;4245;42.120;24.732;2023-05-20T02:23:47;99436.28;;;14.13;100.00
8416;BME280;4245;42.120;24.732;2023-05-20T02:26:14;99435.91;;;14.18;100.00
8416;BME280;4245;42.120;24.732;2023-05-20T02:28:40;99433.53;;;14.24;100.00
8416;BME280;4245;42.120;24.732;2023-05-20T02:31:11;99436.75;;;14.18;100.00
8416;BME280;4245;42.120;24.732;2023-05-20T02:33:39;99435.16;;;14.16;100.00
8416;BME280;4245;42.120;24.732;2023-05-20T02:36:06;99440.88;;;14.11;100.00
8416;BME280;4245;42.120;24.732;2023-05-20T02:38:33;99434.84;;;13.98;100.00
8416;BME280;4245;42.120;24.732;2023-05-20T02:41:00;99439.09;;;14.01;100.00
8416;BME280;4245;42.120;24.732;2023-05-20T02:43:28;99434.28;;;13.83;100.00
8416;BME280;4245;42.120;24.732;2023-05-20T02:45:55;99434.13;;;13.85;100.00
8416;BME280;4245;42.120;24.732;2023-05-20T02:48:22;99431.59;;;13.83;100.00
8416;BME280;4245;42.120;24.732;2023-05-20T02:50:50;99429.88;;;13.93;100.00
8416;BME280;4245;42.120;24.732;2023-05-20T02:53:17;99429.88;;;13.93;100.00
8416;BME280;4245;42.120;24.732;2023-05-20T02:55:44;99439.84;;;13.91;100.00
8416;BME280;4245;42.120;24.732;2023-05-20T02:58:13;99442.88;;;13.98;100.00
8416;BME280;4245;42.120;24.732;2023-05-20T03:00:40;99442.97;;;13.97;100.00
8416;BME280;4245;42.120;24.732;2023-05-20T03:03:07;99442.78;;;14.20;100.00
8416;BME280;4245;42.120;24.732;2023-05-20T03:05:34;99441.16;;;14.08;100.00
8416;BME280;4245;42.120;24.732;2023-05-20T03:08:06;99453.19;;;14.03;100.00
8416;BME280;4245;42.120;24.732;2023-05-20T03:10:34;99442.34;;;14.04;100.00
8416;BME280;4245;42.120;24.732;2023-05-20T03:13:01;99445.28;;;14.01;100.00
8416;BME280;4245;42.120;24.732;2023-05-20T03:15:28;99437.75;;;14.06;100.00
8416;BME280;4245;42.120;24.732;2023-05-20T03:17:56;99448.72;;;14.24;100.00
8416;BME280;4245;42.120;24.732;2023-05-20T03:20:22;99451.28;;;14.25;100.00
8416;BME280;4245;42.120;24.732;2023-05-20T03:22:51;99447.28;;;14.20;100.00
8416;BME280;4245;42.120;24.732;2023-05-20T03:25:20;99455.53;;;14.28;100.00
8416;BME280;4245;42.120;24.732;2023-05-20T03:27:47;99455.97;;;14.33;100.00
8416;BME280;4245;42.120;24.732;2023-05-20T03:30:14;99462.31;;;14.32;100.00
8416;BME280;4245;42.120;24.732;2023-05-20T03:32:41;99469.59;;;14.41;100.00
8416;BME280;4245;42.120;24.732;2023-05-20T03:35:08;99480.16;;;14.43;100.00
8416;BME280;4245;42.120;24.732;2023-05-20T03:37:35;99489.00;;;14.54;100.00
8416;BME280;4245;42.120;24.732;2023-05-20T03:40:03;99506.09;;;14.63;100.00
8416;BME280;4245;42.120;24.732;2023-05-20T03:42:32;99504.72;;;14.68;100.00
8416;BME280;4245;42.120;24.732;2023-05-20T03:44:59;99505.78;;;14.77;100.00
8416;BME280;4245;42.120;24.732;2023-05-20T03:47:26;99499.91;;;14.83;100.00
8416;BME280;4245;42.120;24.732;2023-05-20T03:49:53;99498.94;;;14.84;100.00
8416;BME280;4245;42.120;24.732;2023-05-20T03:52:20;99509.00;;;14.92;100.00
8416;BME280;4245;42.120;24.732;2023-05-20T03:54:46;99506.25;;;15.03;100.00
8416;BME280;4245;42.120;24.732;2023-05-20T03:57:13;99503.31;;;15.06;100.00
8416;BME280;4245;42.120;24.732;2023-05-20T03:59:41;99503.59;;;15.03;100.00
8416;BME280;4245;42.120;24.732;2023-05-20T04:02:08;99511.09;;;15.30;100.00
8416;BME280;4245;42.120;24.732;2023-05-20T04:04:35;99505.75;;;15.30;100.00
8416;BME280;4245;42.120;24.732;2023-05-20T04:07:02;99506.50;;;15.41;100.00
8416;BME280;4245;42.120;24.732;2023-05-20T04:09:30;99518.63;;;15.45;100.00
8416;BME280;4245;42.120;24.732;2023-05-20T04:11:56;99512.41;;;15.56;100.00
8416;BME280;4245;42.120;24.732;2023-05-20T04:14:23;99514.94;;;15.37;100.00
8416;BME280;4245;42.120;24.732;2023-05-20T04:16:51;99518.59;;;15.36;100.00
8416;BME280;4245;42.120;24.732;2023-05-20T04:19:19;99515.38;;;15.42;100.00
8416;BME280;4245;42.120;24.732;2023-05-20T04:21:45;99504.41;;;15.45;100.00
8416;BME280;4245;42.120;24.732;2023-05-20T04:24:12;99509.75;;;15.45;100.00
8416;BME280;4245;42.120;24.732;2023-05-20T04:26:39;99511.03;;;15.61;100.00
8416;BME280;4245;42.120;24.732;2023-05-20T04:29:06;99506.06;;;15.87;100.00
8416;BME280;4245;42.120;24.732;2023-05-20T04:31:32;99518.66;;;16.06;100.00
8416;BME280;4245;42.120;24.732;2023-05-20T04:34:00;99511.13;;;15.90;100.00
8416;BME280;4245;42.120;24.732;2023-05-20T04:36:29;99505.09;;;15.98;100.00
8416;BME280;4245;42.120;24.732;2023-05-20T04:38:56;99503.69;;;16.03;100.00
8416;BME280;4245;42.120;24.732;2023-05-20T04:41:23;99503.56;;;16.05;100.00
8416;BME280;4245;42.120;24.732;2023-05-20T04:43:50;99501.78;;;16.15;100.00
8416;BME280;4245;42.120;24.732;2023-05-20T04:46:17;99514.00;;;16.08;100.00
8416;BME280;4245;42.120;24.732;2023-05-20T04:48:44;99514.09;;;15.87;100.00
8416;BME280;4245;42.120;24.732;2023-05-20T04:51:13;99514.75;;;15.80;100.00
8416;BME280;4245;42.120;24.732;2023-05-20T04:53:40;99511.47;;;15.97;100.00
8416;BME280;4245;42.120;24.732;2023-05-20T04:56:07;99518.09;;;16.12;100.00
8416;BME280;4245;42.120;24.732;2023-05-20T04:58:34;99517.63;;;16.47;100.00
8416;BME280;4245;42.120;24.732;2023-05-20T05:01:01;99510.66;;;16.84;100.00
8416;BME280;4245;42.120;24.732;2023-05-20T05:03:28;99518.09;;;17.00;100.00
8416;BME280;4245;42.120;24.732;2023-05-20T05:05:55;99521.63;;;17.10;100.00
8416;BME280;4245;42.120;24.732;2023-05-20T05:08:24;99527.38;;;17.34;100.00
8416;BME280;4245;42.120;24.732;2023-05-20T05:10:51;99525.09;;;17.59;100.00
8416;BME280;4245;42.120;24.732;2023-05-20T05:13:17;99523.72;;;17.82;100.00
8416;BME280;4245;42.120;24.732;2023-05-20T05:15:44;99524.75;;;17.81;100.00
8416;BME280;4245;42.120;24.732;2023-05-20T05:18:11;99523.88;;;18.17;100.00
8416;BME280;4245;42.120;24.732;2023-05-20T05:20:38;99515.53;;;18.38;100.00
8416;BME280;4245;42.120;24.732;2023-05-20T05:23:05;99520.69;;;18.49;100.00
8416;BME280;4245;42.120;24.732;2023-05-20T05:25:33;99526.66;;;18.71;100.00
8416;BME280;4245;42.120;24.732;2023-05-20T05:28:00;99527.81;;;18.86;98.27
8416;BME280;4245;42.120;24.732;2023-05-20T05:30:26;99522.59;;;19.02;95.95
8416;BME280;4245;42.120;24.732;2023-05-20T05:32:53;99525.03;;;19.13;93.28
8416;BME280;4245;42.120;24.732;2023-05-20T05:35:20;99532.56;;;19.45;92.68
8416;BME280;4245;42.120;24.732;2023-05-20T05:37:47;99527.84;;;19.47;91.07
8416;BME280;4245;42.120;24.732;2023-05-20T05:40:13;99534.22;;;19.72;90.27
8416;BME280;4245;42.120;24.732;2023-05-20T05:42:41;99530.69;;;20.05;86.63
8416;BME280;4245;42.120;24.732;2023-05-20T05:45:09;99538.13;;;20.03;86.18
8416;BME280;4245;42.120;24.732;2023-05-20T05:47:36;99540.47;;;20.32;85.13
8416;BME280;4245;42.120;24.732;2023-05-20T05:50:03;99532.25;;;20.08;86.14
8416;BME280;4245;42.120;24.732;2023-05-20T05:52:30;99523.50;;;20.14;88.84
8416;BME280;4245;42.120;24.732;2023-05-20T05:54:57;99520.59;;;20.49;86.83
8416;BME280;4245;42.120;24.732;2023-05-20T05:57:23;99515.59;;;20.70;83.05
8416;BME280;4245;42.120;24.732;2023-05-20T05:59:52;99509.41;;;20.86;82.39
8416;BME280;4245;42.120;24.732;2023-05-20T06:02:18;99520.41;;;21.25;78.34
8416;BME280;4245;42.120;24.732;2023-05-20T06:04:45;99524.09;;;21.40;76.66
8416;BME280;4245;42.120;24.732;2023-05-20T06:07:12;99526.47;;;21.19;79.82
8416;BME280;4245;42.120;24.732;2023-05-20T06:09:39;99528.84;;;21.22;79.51
8416;BME280;4245;42.120;24.732;2023-05-20T06:12:06;99531.69;;;21.45;80.50
8416;BME280;4245;42.120;24.732;2023-05-20T06:14:33;99525.84;;;21.88;78.61
8416;BME280;4245;42.120;24.732;2023-05-20T06:17:02;99526.31;;;22.16;76.73
8416;BME280;4245;42.120;24.732;2023-05-20T06:19:29;99519.63;;;22.35;76.08
8416;BME280;4245;42.120;24.732;2023-05-20T06:21:55;99515.84;;;22.44;73.43
8416;BME280;4245;42.120;24.732;2023-05-20T06:24:23;99524.59;;;22.85;72.97
8416;BME280;4245;42.120;24.732;2023-05-20T06:26:49;99515.63;;;22.84;71.63
8416;BME280;4245;42.120;24.732;2023-05-20T06:29:16;99514.91;;;23.13;70.49
8416;BME280;4245;42.120;24.732;2023-05-20T06:31:43;99514.03;;;23.35;68.67
8416;BME280;4245;42.120;24.732;2023-05-20T06:34:11;99523.94;;;23.28;69.86
8416;BME280;4245;42.120;24.732;2023-05-20T06:36:38;99523.94;;;23.28;70.21
8416;BME280;4245;42.120;24.732;2023-05-20T06:39:05;99526.63;;;23.51;70.59
8416;BME280;4245;42.120;24.732;2023-05-20T06:41:37;99515.41;;;23.69;65.51
8416;BME280;4245;42.120;24.732;2023-05-20T06:46:49;99510.56;;;23.79;65.14
8416;BME280;4245;42.120;24.732;2023-05-20T06:49:17;99512.84;;;24.19;63.32
8416;BME280;4245;42.120;24.732;2023-05-20T06:51:44;99498.28;;;24.42;61.88
8416;BME280;4245;42.120;24.732;2023-05-20T06:54:11;99504.88;;;24.90;59.75
8416;BME280;4245;42.120;24.732;2023-05-20T06:56:38;99505.50;;;25.06;56.83
8416;BME280;4245;42.120;24.732;2023-05-20T06:59:04;99504.16;;;25.24;56.80
8416;BME280;4245;42.120;24.732;2023-05-20T07:01:32;99505.06;;;25.31;55.57
8416;BME280;4245;42.120;24.732;2023-05-20T07:03:58;99507.38;;;25.34;55.57
8416;BME280;4245;42.120;24.732;2023-05-20T07:06:27;99514.72;;;25.55;52.50
8416;BME280;4245;42.120;24.732;2023-05-20T07:08:54;99514.53;;;25.56;51.99
8416;BME280;4245;42.120;24.732;2023-05-20T07:11:21;99507.44;;;25.40;53.88
8416;BME280;4245;42.120;24.732;2023-05-20T07:13:48;99516.75;;;25.80;55.47
8416;BME280;4245;42.120;24.732;2023-05-20T07:16:15;99517.69;;;25.94;53.17
8416;BME280;4245;42.120;24.732;2023-05-20T07:18:41;99514.50;;;25.90;53.87
8416;BME280;4245;42.120;24.732;2023-05-20T07:21:08;99523.09;;;25.87;54.76
8416;BME280;4245;42.120;24.732;2023-05-20T07:23:36;99511.53;;;26.20;58.99
8416;BME280;4245;42.120;24.732;2023-05-20T07:26:03;99521.06;;;26.30;62.58
8416;BME280;4245;42.120;24.732;2023-05-20T07:28:30;99514.69;;;26.64;59.68
8416;BME280;4245;42.120;24.732;2023-05-20T07:30:57;99518.56;;;26.90;48.63
8416;BME280;4245;42.120;24.732;2023-05-20T07:33:24;99520.69;;;27.27;46.94
8416;BME280;4245;42.120;24.732;2023-05-20T07:35:51;99515.44;;;27.12;48.57
8416;BME280;4245;42.120;24.732;2023-05-20T07:38:18;99523.84;;;27.37;47.38
8416;BME280;4245;42.120;24.732;2023-05-20T07:40:46;99535.00;;;27.55;45.58
8416;BME280;4245;42.120;24.732;2023-05-20T07:43:13;99522.00;;;27.64;55.33
8416;BME280;4245;42.120;24.732;2023-05-20T07:45:41;99526.16;;;28.13;52.74
8416;BME280;4245;42.120;24.732;2023-05-20T07:48:08;99529.53;;;28.59;47.06
8416;BME280;4245;42.120;24.732;2023-05-20T07:50:35;99525.03;;;28.78;42.36
8416;BME280;4245;42.120;24.732;2023-05-20T07:53:02;99525.09;;;29.03;40.23
8416;BME280;4245;42.120;24.732;2023-05-20T07:55:28;99530.56;;;28.58;41.97
8416;BME280;4245;42.120;24.732;2023-05-20T07:57:56;99534.22;;;28.45;41.35
8416;BME280;4245;42.120;24.732;2023-05-20T08:00:23;99526.50;;;28.23;42.75
8416;BME280;4245;42.120;24.732;2023-05-20T08:02:50;99517.53;;;27.89;49.30
8416;BME280;4245;42.120;24.732;2023-05-20T08:05:17;99521.22;;;28.34;45.94
8416;BME280;4245;42.120;24.732;2023-05-20T08:07:44;99518.81;;;28.95;42.01
8416;BME280;4245;42.120;24.732;2023-05-20T08:10:10;99512.06;;;29.05;41.56
8416;BME280;4245;42.120;24.732;2023-05-20T08:12:37;99519.44;;;28.60;40.26
8416;BME280;4245;42.120;24.732;2023-05-20T08:15:07;99518.97;;;27.98;40.07
8416;BME280;4245;42.120;24.732;2023-05-20T08:17:34;99525.53;;;27.91;41.85
8416;BME280;4245;42.120;24.732;2023-05-20T08:20:00;99528.31;;;28.42;38.35
8416;BME280;4245;42.120;24.732;2023-05-20T08:22:27;99527.59;;;27.89;38.91
8416;BME280;4245;42.120;24.732;2023-05-20T08:24:54;99521.94;;;27.84;38.76
8416;BME280;4245;42.120;24.732;2023-05-20T08:27:20;99521.72;;;28.12;37.83
8416;BME280;4245;42.120;24.732;2023-05-20T08:29:47;99511.47;;;27.87;39.16
8416;BME280;4245;42.120;24.732;2023-05-20T08:32:15;99507.44;;;27.96;39.16
8416;BME280;4245;42.120;24.732;2023-05-20T08:34:42;99509.91;;;28.18;40.11
8416;BME280;4245;42.120;24.732;2023-05-20T08:37:09;99506.72;;;28.27;39.55
8416;BME280;4245;42.120;24.732;2023-05-20T08:39:36;99505.59;;;28.48;39.64
8416;BME280;4245;42.120;24.732;2023-05-20T08:42:02;99510.75;;;28.76;38.35
8416;BME280;4245;42.120;24.732;2023-05-20T08:44:32;99521.06;;;28.67;38.38
8416;BME280;4245;42.120;24.732;2023-05-20T08:46:59;99505.28;;;28.25;40.75
8416;BME280;4245;42.120;24.732;2023-05-20T08:49:27;99515.16;;;28.77;39.44
8416;BME280;4245;42.120;24.732;2023-05-20T08:51:54;99511.09;;;28.86;40.11
8416;BME280;4245;42.120;24.732;2023-05-20T08:54:22;99519.19;;;28.74;38.51
8416;BME280;4245;42.120;24.732;2023-05-20T08:56:51;99508.69;;;28.07;40.02
8416;BME280;4245;42.120;24.732;2023-05-20T08:59:20;99506.81;;;27.94;41.10
8416;BME280;4245;42.120;24.732;2023-05-20T09:01:47;99519.50;;;28.46;39.24
8416;BME280;4245;42.120;24.732;2023-05-20T09:04:14;99512.53;;;28.50;38.35
8416;BME280;4245;42.120;24.732;2023-05-20T09:06:44;99508.53;;;28.91;38.75
8416;BME280;4245;42.120;24.732;2023-05-20T09:09:11;99513.25;;;29.65;37.21
8416;BME280;4245;42.120;24.732;2023-05-20T09:11:38;99512.69;;;29.81;35.29
8416;BME280;4245;42.120;24.732;2023-05-20T09:14:06;99512.59;;;29.69;36.37
8416;BME280;4245;42.120;24.732;2023-05-20T09:16:33;99501.09;;;29.36;36.49
8416;BME280;4245;42.120;24.732;2023-05-20T09:19:00;99499.50;;;29.22;37.53
8416;BME280;4245;42.120;24.732;2023-05-20T09:21:27;99507.69;;;28.97;38.87
8416;BME280;4245;42.120;24.732;2023-05-20T09:23:55;99503.34;;;28.83;39.51
8416;BME280;4245;42.120;24.732;2023-05-20T09:26:26;99497.69;;;28.78;40.21
8416;BME280;4245;42.120;24.732;2023-05-20T09:28:54;99499.84;;;28.63;40.49
8416;BME280;4245;42.120;24.732;2023-05-20T09:31:25;99502.78;;;28.68;40.57
8416;BME280;4245;42.120;24.732;2023-05-20T09:33:52;99501.41;;;29.21;40.00
8416;BME280;4245;42.120;24.732;2023-05-20T09:36:21;99502.00;;;28.99;40.14
8416;BME280;4245;42.120;24.732;2023-05-20T09:38:51;99508.00;;;28.31;41.67
8416;BME280;4245;42.120;24.732;2023-05-20T09:41:22;99503.53;;;27.53;43.92
8416;BME280;4245;42.120;24.732;2023-05-20T09:43:51;99498.81;;;28.06;43.72
8416;BME280;4245;42.120;24.732;2023-05-20T09:46:19;99494.50;;;28.81;41.23
8416;BME280;4245;42.120;24.732;2023-05-20T09:48:46;99492.34;;;29.21;40.73
8416;BME280;4245;42.120;24.732;2023-05-20T09:51:14;99494.13;;;29.83;39.98
8416;BME280;4245;42.120;24.732;2023-05-20T09:53:41;99495.13;;;30.61;37.71
8416;BME280;4245;42.120;24.732;2023-05-20T09:56:08;99486.53;;;30.88;36.51
8416;BME280;4245;42.120;24.732;2023-05-20T09:58:37;99482.97;;;31.40;36.04
8416;BME280;4245;42.120;24.732;2023-05-20T10:01:05;99469.94;;;31.24;35.30
8416;BME280;4245;42.120;24.732;2023-05-20T10:03:33;99473.41;;;31.20;35.76
8416;BME280;4245;42.120;24.732;2023-05-20T10:06:20;99479.94;;;31.19;35.76
8416;BME280;4245;42.120;24.732;2023-05-20T10:12:02;99485.47;;;30.41;36.45
8416;BME280;4245;42.120;24.732;2023-05-20T10:14:39;99471.72;;;29.93;37.68
8416;BME280;4245;42.120;24.732;2023-05-20T10:17:16;99470.41;;;29.27;38.97
8416;BME280;4245;42.120;24.732;2023-05-20T10:19:47;99469.53;;;28.77;40.92
8416;BME280;4245;42.120;24.732;2023-05-20T10:22:24;99466.28;;;28.49;42.09
8416;BME280;4245;42.120;24.732;2023-05-20T10:24:57;99468.72;;;29.33;40.70
8416;BME280;4245;42.120;24.732;2023-05-20T10:27:24;99473.75;;;29.54;39.48
8416;BME280;4245;42.120;24.732;2023-05-20T10:29:53;99462.44;;;28.57;41.50
8416;BME280;4245;42.120;24.732;2023-05-20T10:32:24;99455.75;;;28.52;43.22
8416;BME280;4245;42.120;24.732;2023-05-20T10:34:51;99464.84;;;28.84;42.81
8416;BME280;4245;42.120;24.732;2023-05-20T10:37:22;99458.06;;;28.93;41.95
8416;BME280;4245;42.120;24.732;2023-05-20T10:39:49;99462.41;;;29.01;41.28
8416;BME280;4245;42.120;24.732;2023-05-20T10:42:26;99472.88;;;29.60;37.79
8416;BME280;4245;42.120;24.732;2023-05-20T10:44:55;99471.03;;;29.97;35.94
8416;BME280;4245;42.120;24.732;2023-05-20T10:47:22;99469.88;;;30.23;34.97
8416;BME280;4245;42.120;24.732;2023-05-20T10:49:48;99458.16;;;29.98;34.12
8416;BME280;4245;42.120;24.732;2023-05-20T10:52:16;99460.56;;;29.69;34.46
8416;BME280;4245;42.120;24.732;2023-05-20T10:54:43;99464.47;;;29.37;35.69
8416;BME280;4245;42.120;24.732;2023-05-20T10:57:10;99459.09;;;28.92;37.64
8416;BME280;4245;42.120;24.732;2023-05-20T10:59:37;99476.50;;;28.73;38.62
8416;BME280;4245;42.120;24.732;2023-05-20T11:02:06;99471.38;;;28.83;38.91
8416;BME280;4245;42.120;24.732;2023-05-20T11:04:36;99467.78;;;29.14;38.87
8416;BME280;4245;42.120;24.732;2023-05-20T11:07:03;99463.09;;;28.59;38.96
8416;BME280;4245;42.120;24.732;2023-05-20T11:09:30;99461.75;;;28.36;38.71
8416;BME280;4245;42.120;24.732;2023-05-20T11:11:58;99468.56;;;28.01;40.37
8416;BME280;4245;42.120;24.732;2023-05-20T11:14:27;99463.22;;;27.61;41.23
8416;BME280;4245;42.120;24.732;2023-05-20T11:16:55;99462.16;;;27.23;42.32
8416;BME280;4245;42.120;24.732;2023-05-20T11:19:24;99459.84;;;27.07;43.19
8416;BME280;4245;42.120;24.732;2023-05-20T11:21:51;99458.41;;;27.11;43.21
8416;BME280;4245;42.120;24.732;2023-05-20T11:24:23;99458.97;;;26.80;42.36
8416;BME280;4245;42.120;24.732;2023-05-20T11:26:51;99447.78;;;26.42;43.90
8416;BME280;4245;42.120;24.732;2023-05-20T11:29:18;99453.44;;;26.47;44.94
8416;BME280;4245;42.120;24.732;2023-05-20T11:31:47;99448.91;;;26.80;43.94
8416;BME280;4245;42.120;24.732;2023-05-20T11:34:14;99451.47;;;27.54;42.38
8416;BME280;4245;42.120;24.732;2023-05-20T11:36:43;99444.19;;;27.99;41.62
8416;BME280;4245;42.120;24.732;2023-05-20T11:39:10;99446.31;;;27.97;41.36
8416;BME280;4245;42.120;24.732;2023-05-20T11:41:38;99444.94;;;28.33;40.65
8416;BME280;4245;42.120;24.732;2023-05-20T11:44:08;99448.78;;;28.57;40.10
8416;BME280;4245;42.120;24.732;2023-05-20T11:46:40;99448.09;;;28.68;38.83
8416;BME280;4245;42.120;24.732;2023-05-20T11:49:07;99442.44;;;28.31;39.13
8416;BME280;4245;42.120;24.732;2023-05-20T11:51:34;99451.13;;;28.02;38.82
8416;BME280;4245;42.120;24.732;2023-05-20T11:54:03;99452.06;;;27.76;39.83
8416;BME280;4245;42.120;24.732;2023-05-20T11:56:30;99444.72;;;27.70;39.84
8416;BME280;4245;42.120;24.732;2023-05-20T11:58:59;99446.59;;;27.70;39.85
8416;BME280;4245;42.120;24.732;2023-05-20T12:01:29;99441.56;;;27.66;40.74
8416;BME280;4245;42.120;24.732;2023-05-20T12:03:58;99444.72;;;27.31;41.34
8416;BME280;4245;42.120;24.732;2023-05-20T12:06:24;99446.00;;;27.28;40.08
8416;BME280;4245;42.120;24.732;2023-05-20T12:08:51;99439.50;;;27.03;39.58
8416;BME280;4245;42.120;24.732;2023-05-20T12:11:19;99440.44;;;26.49;40.27
8416;BME280;4245;42.120;24.732;2023-05-20T12:13:47;99441.16;;;25.76;42.24
8416;BME280;4245;42.120;24.732;2023-05-20T12:16:13;99440.66;;;25.59;43.99
8416;BME280;4245;42.120;24.732;2023-05-20T12:18:40;99438.34;;;25.56;44.67
8416;BME280;4245;42.120;24.732;2023-05-20T12:21:08;99435.47;;;25.64;44.43
8416;BME280;4245;42.120;24.732;2023-05-20T12:23:34;99438.00;;;25.66;45.13
8416;BME280;4245;42.120;24.732;2023-05-20T12:26:01;99435.75;;;25.20;44.92
8416;BME280;4245;42.120;24.732;2023-05-20T12:28:30;99438.38;;;25.07;46.07
8416;BME280;4245;42.120;24.732;2023-05-20T12:30:57;99430.72;;;25.17;46.01
8416;BME280;4245;42.120;24.732;2023-05-20T12:33:24;99424.88;;;25.20;46.13
8416;BME280;4245;42.120;24.732;2023-05-20T12:35:52;99419.28;;;25.00;46.97
8416;BME280;4245;42.120;24.732;2023-05-20T12:38:18;99422.53;;;24.89;47.41
8416;BME280;4245;42.120;24.732;2023-05-20T12:40:45;99414.50;;;25.02;47.08
8416;BME280;4245;42.120;24.732;2023-05-20T12:43:12;99410.34;;;25.06;48.06
8416;BME280;4245;42.120;24.732;2023-05-20T12:45:40;99418.84;;;25.25;47.23
8416;BME280;4245;42.120;24.732;2023-05-20T12:48:07;99403.31;;;25.19;48.03
8416;BME280;4245;42.120;24.732;2023-05-20T12:50:34;99401.75;;;25.37;47.96
8416;BME280;4245;42.120;24.732;2023-05-20T12:53:00;99393.81;;;25.36;46.63
8416;BME280;4245;42.120;24.732;2023-05-20T12:55:27;99392.31;;;25.27;47.45
8416;BME280;4245;42.120;24.732;2023-05-20T12:57:54;99386.28;;;25.38;47.26
8416;BME280;4245;42.120;24.732;2023-05-20T13:00:21;99379.25;;;25.16;46.94
8416;BME280;4245;42.120;24.732;2023-05-20T13:02:49;99365.34;;;25.04;48.35
8416;BME280;4245;42.120;24.732;2023-05-20T13:05:16;99371.81;;;25.03;48.41
8416;BME280;4245;42.120;24.732;2023-05-20T13:07:43;99366.41;;;25.31;47.12
8416;BME280;4245;42.120;24.732;2023-05-20T13:10:11;99365.94;;;25.55;46.24
8416;BME280;4245;42.120;24.732;2023-05-20T13:12:38;99357.50;;;25.91;46.60
8416;BME280;4245;42.120;24.732;2023-05-20T13:15:10;99355.56;;;26.32;45.97